Time;durP1;ratioP1;P1;durP2;ratioP2;P2;SDS_P1;SDS_P2;PMS_P1;PMS_P2;Temp;Humidity;BMP_temperature;BMP_pressure;BME280_temperature;BME280_humidity;BME280_pressure;Samples;Min_cycle;Max_cycle;Signal;HPM_P1;HPM_P2
2023/03/24 00:04:32;;;;;;;2.37;2.03;;;;;;;10.56;98.48;95653.88;10458376;28;20188;-75
2023/03/24 00:09:32;;;;;;;5.50;2.13;;;;;;;10.51;99.15;95645.75;10458285;28;20237;-75
2023/03/24 00:14:33;;;;;;;2.70;2.20;;;;;;;10.57;98.60;95644.22;10457778;28;20200;-75
2023/03/24 00:19:37;;;;;;;5.60;2.30;;;;;;;10.75;97.06;95636.78;10458197;28;20452;-76
2023/03/24 00:24:37;;;;;;;3.37;2.13;;;;;;;10.62;98.09;95629.56;10457513;28;20223;-76
2023/03/24 00:29:39;;;;;;;2.93;2.43;;;;;;;10.68;98.15;95628.84;10457876;28;20211;-75
2023/03/24 00:34:39;;;;;;;5.78;2.70;;;;;;;10.72;97.92;95621.44;10457236;28;20202;-76
2023/03/24 00:39:41;;;;;;;4.57;2.33;;;;;;;10.75;97.28;95625.47;10438715;28;20248;-76
2023/03/24 00:44:43;;;;;;;5.00;2.27;;;;;;;10.83;96.84;95613.09;10457146;28;20187;-76
2023/03/24 00:49:44;;;;;;;4.50;2.43;;;;;;;10.80;96.52;95613.47;10456939;28;20223;-76
2023/03/24 00:54:45;;;;;;;4.15;2.40;;;;;;;10.72;97.53;95613.59;10453498;28;20295;-76
2023/03/24 00:59:48;;;;;;;5.30;2.40;;;;;;;10.69;97.08;95600.84;10437525;28;20191;-76
2023/03/24 01:05:00;;;;;;;2.23;2.03;;;;;;;10.71;97.84;95598.84;10455824;28;20231;-76
2023/03/24 01:10:01;;;;;;;4.25;2.20;;;;;;;10.82;97.10;95595.75;10455187;28;20196;-75
2023/03/24 01:15:05;;;;;;;3.42;2.40;;;;;;;10.98;96.25;95588.63;10455364;28;20692;-76
2023/03/24 01:20:09;;;;;;;2.85;2.25;;;;;;;10.91;96.03;95583.34;10455071;28;20195;-76
2023/03/24 01:25:13;;;;;;;3.22;2.50;;;;;;;10.92;95.09;95579.72;10454944;28;20780;-75
2023/03/24 01:30:15;;;;;;;6.17;2.20;;;;;;;10.85;96.15;95581.47;10436907;28;20196;-75
2023/03/24 01:35:16;;;;;;;2.80;2.47;;;;;;;10.77;96.71;95576.34;10454330;28;20216;-76
2023/03/24 01:40:22;;;;;;;5.28;2.58;;;;;;;10.83;97.14;95570.38;10453824;28;20700;-76
2023/03/24 01:45:40;;;;;;;4.78;2.60;;;;;;;10.74;100.00;95581.97;10454631;28;20279;-76
2023/03/24 01:50:44;;;;;;;5.23;3.00;;;;;;;10.67;100.00;95590.56;10453586;28;20198;-76
2023/03/24 01:55:45;;;;;;;3.05;2.25;;;;;;;10.64;100.00;95587.47;10453641;28;20254;-76
2023/03/24 02:00:48;;;;;;;3.87;2.70;;;;;;;10.48;100.00;95586.69;10434887;28;20187;-76
2023/03/24 02:06:07;;;;;;;4.43;3.13;;;;;;;10.31;100.00;95574.78;10452197;28;20215;-75
2023/03/24 02:11:08;;;;;;;6.97;2.87;;;;;;;10.24;100.00;95587.78;10434949;28;20247;-76
2023/03/24 02:16:36;;;;;;;5.50;2.77;;;;;;;10.16;100.00;95577.44;10435057;28;20223;-76
2023/03/24 02:22:21;;;;;;;4.33;2.67;;;;;;;10.04;100.00;95581.50;10434744;28;20192;-75
2023/03/24 02:28:02;;;;;;;4.17;3.47;;;;;;;9.86;100.00;95574.81;10452736;28;20656;-77
2023/03/24 02:33:30;;;;;;;4.97;3.10;;;;;;;9.84;100.00;95566.34;10434621;28;20542;-76
2023/03/24 02:38:42;;;;;;;3.97;3.10;;;;;;;9.78;100.00;95559.22;10433645;28;20318;-76
2023/03/24 02:43:56;;;;;;;4.30;2.70;;;;;;;9.84;100.00;95555.06;10416944;28;20204;-75
2023/03/24 02:49:18;;;;;;;5.73;2.70;;;;;;;9.94;100.00;95551.19;10412170;28;20192;-75
2023/03/24 02:54:30;;;;;;;3.50;2.50;;;;;;;9.99;100.00;95553.25;10376508;28;20196;-76
2023/03/24 02:59:37;;;;;;;4.40;2.60;;;;;;;10.11;100.00;95545.75;10392446;28;20286;-76
2023/03/24 03:04:53;;;;;;;7.47;2.73;;;;;;;10.15;100.00;95533.91;10377284;28;20184;-75
2023/03/24 03:10:00;;;;;;;4.77;2.70;;;;;;;10.10;100.00;95531.03;10409544;28;20242;-76
2023/03/24 03:15:05;;;;;;;4.00;2.50;;;;;;;10.25;100.00;95536.28;10392173;28;20427;-76
2023/03/24 03:20:18;;;;;;;3.00;2.70;;;;;;;10.22;100.00;95541.88;10391312;28;20197;-76
2023/03/24 03:25:22;;;;;;;6.13;2.63;;;;;;;10.24;100.00;95538.06;10392070;28;20216;-75
2023/03/24 03:30:39;;;;;;;3.83;2.80;;;;;;;10.12;100.00;95536.91;10390161;28;20204;-76
2023/03/24 03:35:47;;;;;;;8.47;4.60;;;;;;;10.23;100.00;95522.53;10389949;28;20241;-75
2023/03/24 03:40:51;;;;;;;3.87;2.73;;;;;;;10.33;100.00;95499.53;10389916;28;20239;-76
2023/03/24 03:45:54;;;;;;;5.57;2.80;;;;;;;10.23;100.00;95498.97;10389723;28;20242;-75
2023/03/24 03:50:59;;;;;;;3.47;2.65;;;;;;;10.11;100.00;95503.91;10373997;28;20185;-76
2023/03/24 03:55:59;;;;;;;3.10;2.43;;;;;;;10.02;100.00;95491.91;10390092;28;20239;-75
2023/03/24 04:01:02;;;;;;;8.00;2.60;;;;;;;9.81;100.00;95481.19;10389842;28;20200;-75
2023/03/24 04:06:14;;;;;;;3.90;2.40;;;;;;;9.62;100.00;95474.72;10420026;28;20254;-76
2023/03/24 04:11:30;;;;;;;6.17;3.00;;;;;;;9.58;100.00;95476.06;10423009;28;20675;-77
2023/03/24 04:16:59;;;;;;;3.17;2.83;;;;;;;9.53;100.00;95480.22;10426386;28;20212;-76
2023/03/24 04:22:52;;;;;;;4.77;2.73;;;;;;;9.47;100.00;95473.91;10406198;28;20196;-76
2023/03/24 04:28:13;;;;;;;2.67;2.40;;;;;;;9.42;100.00;95465.81;10372126;28;20219;-75
2023/03/24 04:33:27;;;;;;;4.90;2.63;;;;;;;9.38;100.00;95464.53;10427513;28;20188;-75
2023/03/24 04:38:29;;;;;;;3.77;2.30;;;;;;;9.40;100.00;95452.09;10412713;28;20234;-76
2023/03/24 04:43:43;;;;;;;3.17;2.30;;;;;;;9.39;100.00;95446.06;10429615;28;20290;-76
2023/03/24 04:48:46;;;;;;;3.73;2.30;;;;;;;9.40;100.00;95434.63;10422280;28;20298;-76
2023/03/24 04:54:05;;;;;;;3.00;2.60;;;;;;;9.53;100.00;95426.13;10425081;28;20265;-76
2023/03/24 04:59:11;;;;;;;5.30;2.43;;;;;;;9.84;100.00;95405.97;10428441;28;20732;-75
2023/03/24 05:04:12;;;;;;;3.50;2.80;;;;;;;9.89;100.00;95406.22;10434661;28;20218;-75
2023/03/24 05:09:13;;;;;;;5.20;3.33;;;;;;;10.13;100.00;95397.22;10453273;28;20214;-76
2023/03/24 05:14:14;;;;;;;4.55;3.05;;;;;;;10.29;100.00;95385.69;10436199;28;20640;-76
2023/03/24 05:19:15;;;;;;;3.50;2.90;;;;;;;10.29;100.00;95391.75;10435467;28;20302;-76
2023/03/24 05:24:17;;;;;;;4.40;2.60;;;;;;;10.51;100.00;95392.56;10435633;28;20191;-76
2023/03/24 05:29:17;;;;;;;5.68;2.80;;;;;;;10.66;100.00;95365.50;10434862;28;20754;-76
2023/03/24 05:34:21;;;;;;;5.95;2.80;;;;;;;10.69;100.00;95383.47;10451747;28;20690;-76
2023/03/24 05:39:35;;;;;;;3.63;2.80;;;;;;;10.93;100.00;95356.00;10435102;28;20231;-74
2023/03/24 05:44:40;;;;;;;3.50;2.65;;;;;;;10.79;100.00;95362.97;10434156;28;20278;-76
2023/03/24 05:49:46;;;;;;;4.53;2.27;;;;;;;10.73;100.00;95368.16;10434679;28;20564;-76
2023/03/24 05:54:50;;;;;;;6.68;3.08;;;;;;;10.89;100.00;95371.31;10451923;28;20336;-76
2023/03/24 05:59:54;;;;;;;4.83;3.60;;;;;;;10.94;100.00;95373.34;10434512;28;20192;-76
2023/03/24 06:05:13;;;;;;;4.87;2.93;;;;;;;11.14;100.00;95367.41;10451135;28;20188;-76
2023/03/24 06:10:17;;;;;;;3.05;2.75;;;;;;;11.00;100.00;95356.84;10429204;28;20189;-77
2023/03/24 06:15:26;;;;;;;4.25;2.50;;;;;;;11.10;100.00;95347.84;10397344;28;20307;-76
2023/03/24 06:20:26;;;;;;;4.78;2.65;;;;;;;11.10;100.00;95335.53;10392644;28;20193;-75
2023/03/24 06:25:34;;;;;;;4.82;2.30;;;;;;;11.14;100.00;95343.84;10409525;28;20212;-76
2023/03/24 06:30:49;;;;;;;3.15;1.88;;;;;;;11.72;100.00;95327.72;10392268;28;20676;-75
2023/03/24 06:35:56;;;;;;;2.25;1.75;;;;;;;12.22;96.96;95304.63;10392014;28;20263;-75
2023/03/24 06:41:03;;;;;;;2.40;1.90;;;;;;;12.55;93.52;95289.84;10407580;28;20243;-76
2023/03/24 06:46:05;;;;;;;2.33;1.83;;;;;;;12.81;91.10;95281.91;10391470;28;20243;-76
2023/03/24 06:51:06;;;;;;;4.38;2.33;;;;;;;12.87;87.20;95269.78;10407907;28;20188;-76
2023/03/24 06:56:07;;;;;;;3.22;2.20;;;;;;;12.90;87.41;95266.75;10390340;28;20216;-75
2023/03/24 07:01:16;;;;;;;4.13;2.17;;;;;;;13.19;85.56;95257.53;10407525;28;20184;-75
2023/03/24 07:06:26;;;;;;;3.97;1.80;;;;;;;13.42;83.75;95264.13;10418613;28;20203;-75
2023/03/24 07:11:30;;;;;;;2.75;1.50;;;;;;;13.42;82.64;95258.09;10411442;28;20184;-75
2023/03/24 07:16:32;;;;;;;3.00;2.17;;;;;;;13.40;82.05;95249.56;10404405;28;20212;-75
2023/03/24 07:21:48;;;;;;;2.40;1.73;;;;;;;13.44;82.42;95269.19;10391118;28;20243;-76
2023/03/24 07:26:49;;;;;;;5.00;2.35;;;;;;;13.60;81.96;95276.59;10390171;28;20199;-76
2023/03/24 07:31:57;;;;;;;2.70;2.03;;;;;;;13.73;80.29;95250.19;10390449;28;20200;-76
2023/03/24 07:36:57;;;;;;;4.30;2.08;;;;;;;13.78;80.02;95267.97;10389866;28;20228;-76
2023/03/24 07:41:58;;;;;;;5.05;2.30;;;;;;;13.60;80.20;95270.50;10407556;28;20212;-75
2023/03/24 07:47:14;;;;;;;3.03;2.35;;;;;;;13.43;81.62;95275.47;10390008;28;20184;-76
2023/03/24 07:52:15;;;;;;;2.70;1.90;;;;;;;13.48;81.17;95273.81;10417599;28;20195;-75
2023/03/24 07:57:18;;;;;;;3.80;2.20;;;;;;;13.59;80.45;95268.91;10429846;28;20248;-75
2023/03/24 08:02:19;;;;;;;6.30;2.50;;;;;;;13.66;79.42;95269.66;10416656;28;20275;-76
2023/03/24 08:07:31;;;;;;;5.00;2.55;;;;;;;13.76;79.16;95270.03;10409177;28;20194;-75
2023/03/24 08:12:32;;;;;;;3.95;2.47;;;;;;;13.75;78.64;95268.41;10450854;28;20202;-75
2023/03/24 08:17:33;;;;;;;2.63;2.33;;;;;;;13.81;78.71;95258.84;10437876;28;20223;-75
2023/03/24 08:22:33;;;;;;;3.35;2.15;;;;;;;14.16;76.85;95239.97;10455293;28;20188;-75
2023/03/24 08:27:34;;;;;;;4.07;2.08;;;;;;;14.65;74.73;95232.25;10455012;28;20190;-75
2023/03/24 08:32:35;;;;;;;5.97;2.65;;;;;;;14.38;75.97;95246.47;10437433;28;20290;-75
2023/03/24 08:37:36;;;;;;;2.67;2.20;;;;;;;14.49;76.55;95258.13;10454652;28;20241;-76
2023/03/24 08:42:36;;;;;;;3.15;2.22;;;;;;;14.19;77.23;95274.59;10454311;28;20212;-75
2023/03/24 08:47:37;;;;;;;4.07;2.42;;;;;;;13.71;78.55;95293.56;10453292;28;20192;-75
2023/03/24 08:52:37;;;;;;;4.78;2.58;;;;;;;13.74;79.04;95308.91;10453158;28;20204;-76
2023/03/24 08:57:37;;;;;;;7.88;2.85;;;;;;;13.63;79.76;95305.13;10453989;28;20223;-76
2023/03/24 09:02:38;;;;;;;2.42;2.22;;;;;;;13.42;82.42;95316.75;10453503;28;20243;-75
2023/03/24 09:07:38;;;;;;;2.90;2.63;;;;;;;13.16;85.44;95336.84;10454388;28;20300;-77
2023/03/24 09:12:39;;;;;;;4.60;3.05;;;;;;;13.07;87.33;95324.94;10453428;28;20207;-77
2023/03/24 09:17:39;;;;;;;7.45;4.90;;;;;;;13.17;89.86;95350.81;10450262;28;20220;-76
2023/03/24 09:22:42;;;;;;;5.45;3.50;;;;;;;13.22;90.81;95342.31;10453376;28;20698;-77
2023/03/24 09:28:21;;;;;;;4.15;2.65;;;;;;;13.54;90.67;95328.25;10449629;28;20207;-77
2023/03/24 09:33:22;;;;;;;6.15;2.88;;;;;;;14.45;88.56;95320.97;10452245;28;20203;-78
2023/03/24 09:38:23;;;;;;;2.85;2.58;;;;;;;14.45;83.44;95283.28;10452837;28;20310;-76
2023/03/24 09:43:33;;;;;;;2.30;2.10;;;;;;;14.13;80.46;95280.69;10452236;28;20266;-76
2023/03/24 09:48:50;;;;;;;3.03;2.00;;;;;;;14.09;81.03;95280.34;10431942;28;20180;-77
2023/03/24 09:54:13;;;;;;;1.67;1.58;;;;;;;14.23;78.49;95270.50;10435504;28;20199;-76
2023/03/24 09:59:17;;;;;;;1.70;1.60;;;;;;;14.63;77.48;95261.47;10428345;28;20222;-76
2023/03/24 10:04:20;;;;;;;1.70;1.60;;;;;;;14.86;76.60;95257.41;10430687;28;20188;-76
2023/03/24 10:09:33;;;;;;;1.40;1.30;;;;;;;14.13;75.65;95249.09;10409222;28;20180;-76
2023/03/24 10:15:01;;;;;;;1.38;1.33;;;;;;;13.69;77.18;95271.88;10427019;28;20198;-76
2023/03/24 10:20:27;;;;;;;1.35;1.23;;;;;;;13.91;76.60;95267.91;10406261;28;20573;-75
2023/03/24 10:25:39;;;;;;;3.70;1.33;;;;;;;14.03;76.04;95244.31;10424405;28;20191;-76
2023/03/24 10:30:41;;;;;;;0.98;0.98;;;;;;;14.38;74.27;95228.03;10409703;28;20275;-76
2023/03/24 10:35:56;;;;;;;1.73;1.38;;;;;;;13.99;75.92;95253.66;10390987;28;20743;-75
2023/03/24 10:40:56;;;;;;;1.88;1.23;;;;;;;14.03;76.09;95251.44;10449911;28;20242;-75
2023/03/24 10:45:57;;;;;;;1.25;1.15;;;;;;;14.38;74.45;95232.47;10448439;28;20551;-76
2023/03/24 10:50:58;;;;;;;0.85;0.85;;;;;;;15.73;72.72;95222.81;10449162;28;20184;-76
2023/03/24 10:55:58;;;;;;;1.25;1.00;;;;;;;16.08;68.76;95168.47;10449252;28;20211;-75
2023/03/24 11:00:59;;;;;;;1.50;1.00;;;;;;;15.54;68.13;95169.28;10448595;28;20211;-76
2023/03/24 11:06:02;;;;;;;0.88;0.88;;;;;;;15.13;70.64;95240.25;10441060;28;20265;-77
2023/03/24 11:11:30;;;;;;;1.00;0.90;;;;;;;14.80;69.40;95237.97;10409450;28;20247;-76
2023/03/24 11:16:35;;;;;;;0.93;0.65;;;;;;;14.81;70.25;95260.69;10436117;28;20215;-75
2023/03/24 11:21:36;;;;;;;0.70;0.70;;;;;;;15.10;70.29;95255.69;10449065;28;20677;-76
2023/03/24 11:26:38;;;;;;;1.48;0.70;;;;;;;15.46;69.30;95246.13;10447266;28;20180;-76
2023/03/24 11:31:39;;;;;;;0.65;0.65;;;;;;;15.34;69.09;95241.63;10447513;28;20202;-77
2023/03/24 11:36:41;;;;;;;1.80;0.90;;;;;;;14.61;71.88;95285.41;10448397;28;20581;-76
2023/03/24 11:42:00;;;;;;;1.83;0.80;;;;;;;14.37;73.16;95297.53;10435037;28;20207;-77
2023/03/24 11:47:16;;;;;;;0.77;0.77;;;;;;;14.52;73.58;95313.03;10456571;28;20190;-76
2023/03/24 11:52:23;;;;;;;2.17;1.10;;;;;;;14.07;76.09;95319.25;10455920;28;20184;-75
2023/03/24 11:57:36;;;;;;;1.00;0.93;;;;;;;14.19;74.97;95290.38;10447549;28;20353;-76
2023/03/24 12:03:10;;;;;;;2.38;0.90;;;;;;;13.94;72.79;95260.63;10408893;28;20296;-75
2023/03/24 12:08:24;;;;;;;1.38;1.00;;;;;;;13.85;73.32;95274.00;10453806;28;20192;-76
2023/03/24 12:13:34;;;;;;;0.90;0.80;;;;;;;14.09;71.74;95232.94;10455049;28;20554;-77
2023/03/24 12:18:50;;;;;;;1.23;1.13;;;;;;;14.86;71.51;95234.47;10454161;28;20219;-76
2023/03/24 12:23:57;;;;;;;1.27;1.10;;;;;;;14.41;71.30;95232.88;10456075;28;20235;-77
2023/03/24 12:29:22;;;;;;;1.92;1.40;;;;;;;14.48;70.86;95245.97;10437498;28;20828;-76
2023/03/24 12:34:51;;;;;;;1.15;0.90;;;;;;;13.54;74.72;95282.72;10455753;28;20203;-77
2023/03/24 12:40:39;;;;;;;1.63;1.00;;;;;;;13.65;75.92;95299.66;10453071;28;20236;-75
2023/03/24 12:45:51;;;;;;;3.42;2.95;;;;;;;13.55;76.84;95332.50;10454046;28;20196;-76
2023/03/24 12:51:09;;;;;;;1.48;1.17;;;;;;;12.88;81.94;95367.81;10454252;28;20226;-76
2023/03/24 12:56:20;;;;;;;3.08;1.00;;;;;;;12.56;86.75;95365.03;10436288;28;20314;-76
2023/03/24 13:02:03;;;;;;;0.85;0.85;;;;;;;13.03;84.94;95335.06;10452554;28;20717;-76
2023/03/24 13:07:17;;;;;;;2.35;1.30;;;;;;;13.06;84.94;95327.75;10452523;28;20241;-76
2023/03/24 13:12:27;;;;;;;2.45;1.73;;;;;;;12.90;87.34;95332.44;10446577;28;20652;-76
2023/03/24 13:17:35;;;;;;;1.60;1.10;;;;;;;13.19;85.83;95296.97;10403959;28;20227;-76
2023/03/24 13:22:36;;;;;;;2.53;1.10;;;;;;;13.31;84.80;95297.13;10435499;28;20195;-75
2023/03/24 13:27:38;;;;;;;2.95;1.10;;;;;;;13.18;85.85;95290.13;10452371;28;20184;-76
2023/03/24 13:32:43;;;;;;;1.10;0.90;;;;;;;13.08;85.58;95283.66;10444343;28;20558;-76
2023/03/24 13:37:50;;;;;;;1.77;1.20;;;;;;;12.99;87.02;95297.03;10427774;28;20234;-77
2023/03/24 13:43:05;;;;;;;1.23;1.02;;;;;;;12.80;91.79;95313.66;10419740;28;20235;-77
2023/03/24 13:48:09;;;;;;;5.80;3.90;;;;;;;12.89;93.36;95306.38;10437939;28;20647;-76
2023/03/24 13:53:13;;;;;;;1.67;1.52;;;;;;;13.10;91.79;95286.91;10434661;28;20227;-76
2023/03/24 13:58:19;;;;;;;1.48;1.10;;;;;;;13.36;89.75;95255.25;10429863;28;20212;-77
2023/03/24 14:03:31;;;;;;;1.05;0.90;;;;;;;13.63;86.22;95226.19;10431899;28;20199;-76
2023/03/24 14:08:50;;;;;;;1.10;1.00;;;;;;;13.09;84.07;95345.75;10451532;28;20176;-76
2023/03/24 14:13:51;;;;;;;4.00;1.35;;;;;;;10.47;100.00;95474.28;10427997;28;20246;-76
2023/03/24 14:19:16;;;;;;;1.58;1.15;;;;;;;9.39;100.00;95476.63;10392445;28;20625;-75
2023/03/24 14:24:24;;;;;;;1.20;1.10;;;;;;;8.79;100.00;95484.34;10426396;28;20184;-76
2023/03/24 14:29:37;;;;;;;1.63;1.23;;;;;;;8.64;100.00;95497.34;10427806;28;20289;-76
2023/03/24 14:34:49;;;;;;;1.37;1.27;;;;;;;8.52;100.00;95494.31;10429012;28;20805;-76
2023/03/24 14:39:50;;;;;;;4.87;1.73;;;;;;;8.38;100.00;95521.16;10404797;28;20313;-77
2023/03/24 14:44:52;;;;;;;2.03;1.50;;;;;;;7.98;100.00;95502.91;10432247;28;20215;-75
2023/03/24 14:49:57;;;;;;;4.27;3.03;;;;;;;8.07;100.00;95495.88;10448890;28;20180;-76
2023/03/24 14:55:06;;;;;;;2.40;2.20;;;;;;;8.10;100.00;95499.91;10414427;28;20192;-76
2023/03/24 15:00:15;;;;;;;3.67;1.53;;;;;;;8.14;100.00;95496.81;10426416;28;20216;-76
2023/03/24 15:05:22;;;;;;;2.83;1.93;;;;;;;8.33;100.00;95499.94;10425320;28;20188;-75
2023/03/24 15:10:22;;;;;;;4.27;2.33;;;;;;;8.14;100.00;95485.56;10421497;28;20207;-75
2023/03/24 15:15:23;;;;;;;1.93;1.60;;;;;;;7.97;100.00;95484.84;10422397;28;20188;-75
2023/03/24 15:20:30;;;;;;;2.47;1.57;;;;;;;7.99;100.00;95488.91;10423893;28;20188;-75
2023/03/24 15:25:30;;;;;;;1.80;1.20;;;;;;;7.96;100.00;95459.72;10423348;28;20191;-75
2023/03/24 15:30:31;;;;;;;2.30;1.60;;;;;;;7.89;100.00;95464.00;10424433;28;20192;-75
2023/03/24 15:35:32;;;;;;;3.87;2.63;;;;;;;7.85;100.00;95453.09;10425835;28;20277;-75
2023/03/24 15:40:34;;;;;;;26.07;12.63;;;;;;;7.84;100.00;95434.06;10427375;28;20276;-75
2023/03/24 15:45:37;;;;;;;44.10;24.17;;;;;;;7.91;100.00;95408.09;10425571;28;20200;-75
2023/03/24 15:50:40;;;;;;;7.50;4.30;;;;;;;8.07;100.00;95401.97;10393691;28;20927;-75
2023/03/24 15:55:42;;;;;;;8.30;4.57;;;;;;;8.04;100.00;95402.34;10425435;28;20624;-75
2023/03/24 16:00:44;;;;;;;10.53;8.17;;;;;;;8.09;100.00;95401.81;10446121;28;20199;-75
2023/03/24 16:05:50;;;;;;;8.67;2.67;;;;;;;8.02;100.00;95402.50;10447311;28;20267;-76
2023/03/24 16:11:03;;;;;;;4.57;2.60;;;;;;;8.14;100.00;95396.88;10448680;28;20195;-76
2023/03/24 16:16:22;;;;;;;7.70;4.13;;;;;;;8.28;100.00;95382.25;10429207;28;20952;-75
2023/03/24 16:21:27;;;;;;;9.07;6.87;;;;;;;8.27;100.00;95375.41;10425278;28;20188;-75
2023/03/24 16:26:29;;;;;;;16.33;11.13;;;;;;;8.25;100.00;95385.22;10424058;28;20195;-74
2023/03/24 16:31:32;;;;;;;11.37;4.87;;;;;;;8.30;100.00;95375.06;10435559;28;20201;-75
2023/03/24 16:36:32;;;;;;;5.60;2.87;;;;;;;8.21;100.00;95369.91;10412281;28;20221;-74
2023/03/24 16:41:33;;;;;;;5.93;2.83;;;;;;;8.27;100.00;95359.75;10431042;28;20212;-75
2023/03/24 16:46:33;;;;;;;4.40;3.10;;;;;;;8.37;100.00;95370.78;10433343;28;20335;-75
2023/03/24 16:51:34;;;;;;;3.33;2.57;;;;;;;8.68;100.00;95362.03;10434369;28;20194;-75
2023/03/24 16:56:35;;;;;;;3.17;2.40;;;;;;;8.75;100.00;95349.91;10428592;28;20211;-76
2023/03/24 17:01:38;;;;;;;5.83;2.93;;;;;;;8.83;100.00;95367.28;10454370;28;20565;-75
2023/03/24 17:06:58;;;;;;;2.70;1.30;;;;;;;8.84;100.00;95342.81;10442109;28;20687;-77
2023/03/24 17:12:00;;;;;;;1.53;1.43;;;;;;;8.80;100.00;95367.66;10413145;28;20193;-75
2023/03/24 17:17:03;;;;;;;1.20;1.10;;;;;;;8.77;100.00;95381.06;10393936;28;20282;-76
2023/03/24 17:22:05;;;;;;;1.67;1.40;;;;;;;8.72;100.00;95381.59;10412071;28;20733;-75
2023/03/24 17:27:14;;;;;;;2.53;1.17;;;;;;;8.70;100.00;95392.22;10395453;28;20803;-75
2023/03/24 17:32:15;;;;;;;1.97;1.20;;;;;;;8.70;100.00;95386.19;10413452;28;20269;-76
2023/03/24 17:37:15;;;;;;;1.63;1.30;;;;;;;8.63;100.00;95387.88;10412165;28;20297;-76
2023/03/24 17:42:15;;;;;;;1.23;1.17;;;;;;;8.62;100.00;95409.75;10413709;28;20786;-75
2023/03/24 17:47:16;;;;;;;1.23;1.10;;;;;;;8.56;100.00;95404.25;10412856;28;20649;-75
2023/03/24 17:52:16;;;;;;;2.33;1.20;;;;;;;8.54;100.00;95419.25;10413218;28;20641;-76
2023/03/24 17:57:17;;;;;;;1.30;1.20;;;;;;;8.40;100.00;95420.81;10412429;28;20303;-76
2023/03/24 18:02:17;;;;;;;1.77;1.40;;;;;;;8.36;100.00;95431.75;10412392;28;20565;-76
2023/03/24 18:07:17;;;;;;;1.83;1.50;;;;;;;8.35;100.00;95440.59;10412520;28;20223;-75
2023/03/24 18:12:19;;;;;;;20.93;8.27;;;;;;;8.28;100.00;95447.50;10411856;28;20193;-76
2023/03/24 18:17:19;;;;;;;2.33;1.70;;;;;;;8.26;100.00;95449.47;10411825;28;20311;-76
2023/03/24 18:22:20;;;;;;;4.67;1.20;;;;;;;8.21;100.00;95448.19;10411918;28;20275;-75
2023/03/24 18:27:21;;;;;;;1.80;1.20;;;;;;;8.14;100.00;95449.03;10394036;28;20200;-76
2023/03/24 18:32:21;;;;;;;1.67;1.57;;;;;;;8.07;100.00;95459.38;10410945;28;20757;-76
2023/03/24 18:37:22;;;;;;;3.73;1.60;;;;;;;8.11;100.00;95471.06;10411019;28;20704;-76
2023/03/24 18:42:22;;;;;;;5.23;1.87;;;;;;;8.06;100.00;95468.16;10411130;28;20699;-75
2023/03/24 18:47:23;;;;;;;2.57;1.80;;;;;;;8.02;100.00;95469.47;10392534;28;20268;-76
2023/03/24 18:52:24;;;;;;;2.77;1.70;;;;;;;8.01;100.00;95473.09;10408873;28;20196;-76
2023/03/24 18:57:24;;;;;;;2.20;1.60;;;;;;;7.96;100.00;95475.38;10409618;28;20668;-76
2023/03/24 19:02:25;;;;;;;4.90;3.30;;;;;;;7.94;100.00;95477.34;10409510;28;20210;-76
2023/03/24 19:07:26;;;;;;;4.43;2.13;;;;;;;8.00;100.00;95472.25;10409355;28;20307;-76
2023/03/24 19:12:26;;;;;;;5.87;3.50;;;;;;;7.92;100.00;95474.91;10409429;28;20674;-76
2023/03/24 19:17:27;;;;;;;14.37;7.40;;;;;;;7.92;100.00;95477.53;10408489;28;20220;-75
2023/03/24 19:22:27;;;;;;;8.10;4.50;;;;;;;7.85;100.00;95477.38;10409364;28;20184;-75
2023/03/24 19:27:34;;;;;;;3.70;2.17;;;;;;;7.82;100.00;95472.50;10423944;28;20188;-76
2023/03/24 19:32:35;;;;;;;4.23;2.43;;;;;;;7.78;100.00;95496.47;10427098;28;20191;-76
2023/03/24 19:37:36;;;;;;;5.20;1.90;;;;;;;7.76;100.00;95474.97;10422438;28;20592;-76
2023/03/24 19:42:40;;;;;;;2.57;1.83;;;;;;;7.65;100.00;95486.59;10423967;28;20628;-75
2023/03/24 19:47:42;;;;;;;3.07;1.60;;;;;;;7.50;100.00;95499.50;10443711;28;20283;-75
2023/03/24 19:52:44;;;;;;;3.27;1.50;;;;;;;7.48;100.00;95497.06;10447345;28;20193;-75
2023/03/24 19:57:45;;;;;;;1.80;1.60;;;;;;;7.43;100.00;95503.78;10446937;28;20226;-75
2023/03/24 20:02:45;;;;;;;3.83;1.40;;;;;;;7.40;100.00;95504.91;10454128;28;20671;-76
2023/03/24 20:07:45;;;;;;;4.67;1.60;;;;;;;7.38;100.00;95504.28;10455003;28;20180;-76
2023/03/24 20:12:46;;;;;;;2.57;1.70;;;;;;;7.26;100.00;95516.03;10454971;28;20245;-76
2023/03/24 20:17:47;;;;;;;3.60;1.60;;;;;;;7.37;100.00;95504.44;10454668;28;20227;-75
2023/03/24 20:22:47;;;;;;;2.93;1.83;;;;;;;7.34;100.00;95513.41;10454792;28;20250;-76
2023/03/24 20:27:48;;;;;;;4.47;1.67;;;;;;;7.30;100.00;95520.75;10453476;28;20187;-76
2023/03/24 20:32:48;;;;;;;6.63;1.73;;;;;;;7.22;100.00;95530.34;10454293;28;20192;-75
2023/03/24 20:37:48;;;;;;;2.60;1.50;;;;;;;7.29;100.00;95526.91;10453428;28;20239;-75
2023/03/24 20:42:49;;;;;;;2.13;1.70;;;;;;;7.29;100.00;95518.31;10452809;28;20353;-75
2023/03/24 20:47:49;;;;;;;6.67;1.80;;;;;;;7.41;100.00;95513.53;10453343;28;20192;-75
2023/03/24 20:52:50;;;;;;;4.40;1.87;;;;;;;7.28;100.00;95512.25;10453240;28;20852;-75
2023/03/24 20:57:50;;;;;;;6.10;2.00;;;;;;;7.23;100.00;95524.13;10452414;28;20300;-75
2023/03/24 21:02:51;;;;;;;3.20;1.70;;;;;;;7.25;100.00;95535.22;10453492;28;20209;-75
2023/03/24 21:07:51;;;;;;;4.87;1.93;;;;;;;7.05;100.00;95530.34;10452268;28;20188;-75
2023/03/24 21:12:51;;;;;;;4.20;1.47;;;;;;;7.16;100.00;95531.81;10423101;28;20211;-75
2023/03/24 21:17:52;;;;;;;5.60;1.77;;;;;;;7.14;100.00;95526.75;10412561;28;20311;-75
2023/03/24 21:22:53;;;;;;;8.90;1.67;;;;;;;7.07;100.00;95525.78;10412996;28;20189;-75
2023/03/24 21:27:54;;;;;;;4.60;1.60;;;;;;;7.00;100.00;95517.03;10412601;28;20676;-75
2023/03/24 21:32:55;;;;;;;6.30;1.70;;;;;;;7.02;100.00;95522.06;10412126;28;20192;-75
2023/03/24 21:37:56;;;;;;;2.60;1.60;;;;;;;6.92;100.00;95523.06;10410492;28;20597;-75
2023/03/24 21:43:03;;;;;;;4.10;1.73;;;;;;;6.91;100.00;95538.84;10409747;28;20203;-75
2023/03/24 21:48:28;;;;;;;;;;;;;;;;;;;;;
2023/03/24 21:53:33;;;;;;;4.17;1.50;;;;;;;7.06;100.00;95545.00;10396377;28;20645;-75
2023/03/24 21:58:33;;;;;;;5.87;1.97;;;;;;;7.04;100.00;95546.94;10433790;28;20660;-75
2023/03/24 22:03:36;;;;;;;4.73;2.03;;;;;;;7.19;100.00;95539.28;10451921;28;20242;-75
2023/03/24 22:08:37;;;;;;;4.47;1.67;;;;;;;7.57;100.00;95536.16;10433022;28;20615;-75
2023/03/24 22:13:37;;;;;;;2.47;1.60;;;;;;;7.54;100.00;95524.25;10434295;28;20191;-75
2023/03/24 22:18:38;;;;;;;4.27;2.00;;;;;;;7.63;100.00;95519.84;10451405;28;20572;-75
2023/03/24 22:23:41;;;;;;;4.30;1.57;;;;;;;7.72;100.00;95524.06;10451191;28;20187;-75
2023/03/24 22:28:42;;;;;;;4.97;1.90;;;;;;;7.77;100.00;95529.56;10431882;28;20200;-75
2023/03/24 22:33:43;;;;;;;7.23;1.90;;;;;;;7.76;100.00;95533.13;10450249;28;20215;-75
2023/03/24 22:38:43;;;;;;;4.87;1.90;;;;;;;7.70;100.00;95531.22;10449146;28;20231;-74
2023/03/24 22:43:43;;;;;;;3.53;1.83;;;;;;;7.67;100.00;95531.53;10449547;28;20298;-75
2023/03/24 22:48:44;;;;;;;4.70;1.87;;;;;;;7.75;100.00;95528.09;10449353;28;20183;-75
2023/03/24 22:53:44;;;;;;;8.43;2.00;;;;;;;7.53;100.00;95525.22;10449331;28;20245;-75
2023/03/24 22:58:45;;;;;;;5.00;1.90;;;;;;;7.44;100.00;95527.06;10448355;28;20215;-75
2023/03/24 23:03:45;;;;;;;3.73;1.97;;;;;;;7.48;100.00;95517.91;10433837;28;20200;-75
2023/03/24 23:08:48;;;;;;;3.07;1.50;;;;;;;7.48;100.00;95525.72;10406226;28;20233;-75
2023/03/24 23:13:49;;;;;;;4.17;1.90;;;;;;;7.26;100.00;95514.22;10390320;28;20197;-75
2023/03/24 23:18:50;;;;;;;3.30;2.10;;;;;;;7.40;100.00;95512.72;10406579;28;20223;-75
2023/03/24 23:23:51;;;;;;;5.90;2.47;;;;;;;7.37;100.00;95514.88;10406158;28;20568;-75
2023/03/24 23:28:51;;;;;;;4.57;1.93;;;;;;;7.32;100.00;95518.78;10407052;28;20192;-75
2023/03/24 23:33:55;;;;;;;7.73;2.47;;;;;;;7.27;100.00;95525.44;10406581;28;20200;-75
2023/03/24 23:38:55;;;;;;;4.60;1.97;;;;;;;7.22;100.00;95519.94;10413839;28;20236;-75
2023/03/24 23:43:55;;;;;;;3.87;2.00;;;;;;;7.30;100.00;95517.31;10416318;28;20203;-75